createdAt,value
2023-03-29T00:00:19.550Z,336
2023-03-29T00:02:26.777Z,334
2023-03-29T00:04:33.671Z,331
2023-03-29T00:06:40.443Z,332
2023-03-29T00:08:47.777Z,334
2023-03-29T00:10:54.166Z,330
2023-03-29T00:13:00.521Z,330
2023-03-29T00:15:07.436Z,334
2023-03-29T00:17:14.693Z,333
2023-03-29T00:19:22.148Z,330
2023-03-29T00:21:28.595Z,330
2023-03-29T00:23:34.786Z,330
2023-03-29T00:25:42.251Z,337
2023-03-29T00:27:49.079Z,334
2023-03-29T00:29:55.581Z,334
2023-03-29T00:32:02.862Z,334
2023-03-29T00:34:09.254Z,337
2023-03-29T00:36:15.986Z,327
2023-03-29T00:38:22.461Z,327
2023-03-29T00:40:28.960Z,339
2023-03-29T00:42:35.585Z,340
2023-03-29T00:44:42.722Z,340
2023-03-29T00:46:49.340Z,328
2023-03-29T00:48:56.232Z,306
2023-03-29T00:51:04.119Z,330
2023-03-29T00:53:13.614Z,327
2023-03-29T00:55:20.222Z,319
2023-03-29T00:57:29.461Z,321
2023-03-29T00:59:35.962Z,320
2023-03-29T01:01:42.734Z,326
2023-03-29T01:03:50.286Z,326
2023-03-29T01:05:57.139Z,326
2023-03-29T01:08:04.037Z,326
2023-03-29T01:10:10.755Z,325
2023-03-29T01:12:17.972Z,325
2023-03-29T01:14:24.323Z,325
2023-03-29T01:16:30.693Z,325
2023-03-29T01:18:37.358Z,325
2023-03-29T01:20:43.607Z,325
2023-03-29T01:22:50.160Z,321
2023-03-29T01:24:56.731Z,326
2023-03-29T01:27:03.075Z,322
2023-03-29T01:29:09.744Z,325
2023-03-29T01:31:16.309Z,322
2023-03-29T01:33:22.966Z,325
2023-03-29T01:35:30.758Z,325
2023-03-29T01:37:37.274Z,326
2023-03-29T01:39:43.920Z,326
2023-03-29T01:41:50.323Z,325
2023-03-29T01:43:56.834Z,325
2023-03-29T01:46:03.977Z,326
2023-03-29T01:48:10.785Z,326
2023-03-29T01:50:17.108Z,326
2023-03-29T01:52:24.011Z,326
2023-03-29T01:54:30.758Z,325
2023-03-29T01:56:37.095Z,326
2023-03-29T01:58:44.280Z,326
2023-03-29T02:00:51.543Z,326
2023-03-29T02:02:59.125Z,326
2023-03-29T02:05:06.566Z,326
2023-03-29T02:07:12.848Z,327
2023-03-29T02:09:19.289Z,327
2023-03-29T02:11:26.774Z,326
2023-03-29T02:13:33.299Z,327
2023-03-29T02:15:40.670Z,326
2023-03-29T02:17:47.311Z,327
2023-03-29T02:19:54.402Z,327
2023-03-29T02:22:01.107Z,327
2023-03-29T02:24:07.818Z,326
2023-03-29T02:26:14.586Z,326
2023-03-29T02:28:21.413Z,327
2023-03-29T02:30:27.932Z,326
2023-03-29T02:32:35.188Z,326
2023-03-29T02:34:42.132Z,326
2023-03-29T02:36:48.570Z,326
2023-03-29T02:38:55.535Z,327
2023-03-29T02:41:02.845Z,326
2023-03-29T02:43:09.868Z,327
2023-03-29T02:45:16.198Z,326
2023-03-29T02:47:22.438Z,327
2023-03-29T02:49:29.648Z,327
2023-03-29T02:51:36.047Z,327
2023-03-29T02:53:42.380Z,326
2023-03-29T02:55:49.563Z,326
2023-03-29T02:57:56.017Z,326
2023-03-29T03:00:03.172Z,326
2023-03-29T03:02:09.983Z,326
2023-03-29T03:04:17.271Z,326
2023-03-29T03:06:24.087Z,326
2023-03-29T03:08:30.819Z,326
2023-03-29T03:10:37.600Z,326
2023-03-29T03:12:44.278Z,327
2023-03-29T03:14:53.008Z,327
2023-03-29T03:16:59.924Z,327
2023-03-29T03:19:10.975Z,327
2023-03-29T03:21:17.412Z,327
2023-03-29T03:23:24.040Z,327
2023-03-29T03:25:31.180Z,327
2023-03-29T03:27:37.160Z,327
2023-03-29T03:29:44.119Z,327
2023-03-29T03:31:53.883Z,327
2023-03-29T03:34:00.767Z,327
2023-03-29T03:36:07.067Z,328
2023-03-29T03:38:14.262Z,328
2023-03-29T03:40:21.951Z,327
2023-03-29T03:42:30.419Z,327
2023-03-29T03:44:36.921Z,328
2023-03-29T03:46:43.564Z,328
2023-03-29T03:48:50.632Z,328
2023-03-29T03:50:57.932Z,328
2023-03-29T03:53:04.975Z,328
2023-03-29T03:55:11.767Z,328
2023-03-29T03:57:18.655Z,328
2023-03-29T03:59:25.805Z,328
2023-03-29T04:01:31.937Z,328
2023-03-29T04:03:39.714Z,328
2023-03-29T04:05:46.656Z,328
2023-03-29T04:07:53.500Z,329
2023-03-29T04:10:00.291Z,328
2023-03-29T04:12:06.932Z,328
2023-03-29T04:14:13.972Z,329
2023-03-29T04:16:20.792Z,329
2023-03-29T04:18:28.511Z,328
2023-03-29T04:20:35.550Z,329
2023-03-29T04:22:42.437Z,328
2023-03-29T04:24:49.232Z,328
2023-03-29T04:26:56.089Z,329
2023-03-29T04:29:02.640Z,328
2023-03-29T04:31:09.715Z,328
2023-03-29T04:33:16.519Z,329
2023-03-29T04:35:22.951Z,328
2023-03-29T04:37:30.844Z,328
2023-03-29T04:39:37.342Z,328
2023-03-29T04:41:43.541Z,329
2023-03-29T04:43:50.328Z,329
2023-03-29T04:45:56.997Z,329
2023-03-29T04:48:03.523Z,329
2023-03-29T04:50:10.123Z,329
2023-03-29T04:52:16.476Z,329
2023-03-29T04:54:23.278Z,329
2023-03-29T04:56:32.023Z,329
2023-03-29T04:58:38.715Z,329
2023-03-29T05:00:45.500Z,329
2023-03-29T05:02:51.678Z,329
2023-03-29T05:04:58.286Z,329
2023-03-29T05:07:04.730Z,329
2023-03-29T05:09:11.062Z,329
2023-03-29T05:11:17.534Z,329
2023-03-29T05:13:23.868Z,329
2023-03-29T05:15:30.329Z,329
2023-03-29T05:17:37.328Z,329
2023-03-29T05:19:43.733Z,329
2023-03-29T05:21:50.362Z,329
2023-03-29T05:23:57.128Z,329
2023-03-29T05:26:03.485Z,329
2023-03-29T05:28:10.147Z,329
2023-03-29T05:30:16.494Z,329
2023-03-29T05:32:23.691Z,329
2023-03-29T05:34:30.412Z,329
2023-03-29T05:36:36.818Z,329
2023-03-29T05:38:44.017Z,329
2023-03-29T05:40:50.374Z,329
2023-03-29T05:42:57.704Z,329
2023-03-29T05:45:04.409Z,329
2023-03-29T05:47:11.754Z,329
2023-03-29T05:49:18.092Z,328
2023-03-29T05:51:25.725Z,329
2023-03-29T05:53:32.501Z,329
2023-03-29T05:55:38.950Z,329
2023-03-29T05:57:46.276Z,329
2023-03-29T05:59:52.633Z,329
2023-03-29T06:01:59.255Z,329
2023-03-29T06:04:08.202Z,329
2023-03-29T06:06:16.019Z,329
2023-03-29T06:08:22.490Z,329
2023-03-29T06:10:29.084Z,329
2023-03-29T06:12:35.813Z,328
2023-03-29T06:14:43.228Z,329
2023-03-29T06:16:49.635Z,329
2023-03-29T06:18:56.860Z,329
2023-03-29T06:21:04.530Z,329
2023-03-29T06:23:12.013Z,329
2023-03-29T06:25:18.692Z,329
2023-03-29T06:27:25.884Z,329
2023-03-29T06:29:32.482Z,329
2023-03-29T06:31:39.942Z,329
2023-03-29T06:33:47.750Z,329
2023-03-29T06:35:56.103Z,329
2023-03-29T06:38:02.388Z,329
2023-03-29T06:40:09.027Z,329
2023-03-29T06:42:24.879Z,329
2023-03-29T06:44:32.543Z,329
2023-03-29T06:46:39.536Z,329
2023-03-29T06:48:45.940Z,329
2023-03-29T06:50:53.149Z,329
2023-03-29T06:53:00.006Z,329
2023-03-29T06:55:06.060Z,329
2023-03-29T06:57:12.640Z,329
2023-03-29T06:59:18.989Z,329
2023-03-29T07:01:25.347Z,329
2023-03-29T07:03:33.093Z,329
2023-03-29T07:05:39.386Z,329
2023-03-29T07:07:45.504Z,329
2023-03-29T07:09:52.430Z,329
2023-03-29T07:11:58.953Z,329
2023-03-29T07:14:05.920Z,329
2023-03-29T07:16:12.882Z,329
2023-03-29T07:18:19.924Z,329
2023-03-29T07:20:26.560Z,329
2023-03-29T07:22:34.488Z,329
2023-03-29T07:24:40.714Z,329
2023-03-29T07:27:05.962Z,329
2023-03-29T07:29:12.607Z,330
2023-03-29T07:31:19.122Z,330
2023-03-29T07:33:25.924Z,329
2023-03-29T07:35:33.049Z,329
2023-03-29T07:37:40.469Z,329
2023-03-29T07:39:47.297Z,329
2023-03-29T07:41:53.440Z,331
2023-03-29T07:44:00.984Z,330
2023-03-29T07:46:09.731Z,330
2023-03-29T07:48:16.911Z,330
2023-03-29T07:50:24.568Z,330
2023-03-29T07:52:32.501Z,330
2023-03-29T07:54:39.302Z,327
2023-03-29T07:56:46.095Z,330
2023-03-29T07:58:53.366Z,330
2023-03-29T08:01:01.403Z,330
2023-03-29T08:03:09.027Z,330
2023-03-29T08:05:26.234Z,330
2023-03-29T08:07:46.939Z,330
2023-03-29T08:09:54.659Z,330
2023-03-29T08:12:03.376Z,330
2023-03-29T08:14:10.171Z,330
2023-03-29T08:16:16.517Z,330
2023-03-29T08:18:23.818Z,330
2023-03-29T08:20:31.488Z,330
2023-03-29T08:22:38.853Z,330
2023-03-29T08:24:47.343Z,330
2023-03-29T08:26:54.275Z,331
2023-03-29T08:29:03.536Z,331
2023-03-29T08:31:09.801Z,331
2023-03-29T08:33:16.462Z,331
2023-03-29T08:35:22.433Z,331
2023-03-29T08:37:28.682Z,331
2023-03-29T08:39:37.494Z,331
2023-03-29T08:41:43.908Z,331
2023-03-29T08:43:50.850Z,331
2023-03-29T08:45:57.010Z,331
2023-03-29T08:48:03.351Z,331
2023-03-29T08:50:10.203Z,331
2023-03-29T08:52:16.350Z,331
2023-03-29T08:54:22.458Z,331
2023-03-29T08:56:28.736Z,330
2023-03-29T08:58:37.754Z,330
2023-03-29T09:00:44.026Z,330
2023-03-29T09:02:51.069Z,329
2023-03-29T09:04:57.479Z,330
2023-03-29T09:07:03.870Z,330
2023-03-29T09:09:10.213Z,329
2023-03-29T09:11:16.344Z,331
2023-03-29T09:13:24.931Z,328
2023-03-29T09:15:31.251Z,324
2023-03-29T09:17:38.049Z,326
2023-03-29T09:19:45.580Z,327
2023-03-29T09:21:52.189Z,327
2023-03-29T09:23:58.710Z,327
2023-03-29T09:26:05.205Z,328
2023-03-29T09:28:11.454Z,328
2023-03-29T09:30:18.042Z,328
2023-03-29T09:32:28.258Z,328
2023-03-29T09:34:34.684Z,328
2023-03-29T09:36:41.273Z,328
2023-03-29T09:38:47.407Z,329
2023-03-29T09:40:53.537Z,328
2023-03-29T09:43:00.006Z,328
2023-03-29T09:45:06.671Z,329
2023-03-29T09:47:12.830Z,329
2023-03-29T09:49:20.399Z,329
2023-03-29T09:51:27.955Z,329
2023-03-29T09:53:34.036Z,329
2023-03-29T09:55:40.493Z,329
2023-03-29T09:57:46.993Z,330
2023-03-29T09:59:53.169Z,329
2023-03-29T10:01:59.411Z,330
2023-03-29T10:04:05.775Z,330
2023-03-29T10:06:12.364Z,330
2023-03-29T10:08:22.094Z,330
2023-03-29T10:10:28.460Z,330
2023-03-29T10:12:34.908Z,329
2023-03-29T10:14:41.427Z,330
2023-03-29T10:16:48.249Z,330
2023-03-29T10:18:55.044Z,330
2023-03-29T10:21:02.439Z,330
2023-03-29T10:23:09.210Z,331
2023-03-29T10:25:15.947Z,330
2023-03-29T10:27:22.537Z,330
2023-03-29T10:29:28.657Z,330
2023-03-29T10:31:37.146Z,330
2023-03-29T10:33:44.126Z,329
2023-03-29T10:35:50.890Z,331
2023-03-29T10:37:57.281Z,331
2023-03-29T10:40:04.169Z,331
2023-03-29T10:42:11.134Z,331
2023-03-29T10:44:18.394Z,334
2023-03-29T10:46:25.137Z,333
2023-03-29T10:48:31.868Z,334
2023-03-29T10:50:38.311Z,336
2023-03-29T10:52:45.191Z,334
2023-03-29T10:54:51.516Z,333
2023-03-29T10:56:58.102Z,334
2023-03-29T10:59:04.879Z,334
2023-03-29T11:01:11.537Z,336
2023-03-29T11:03:23.116Z,336
2023-03-29T11:05:29.825Z,336
2023-03-29T11:07:37.162Z,336
2023-03-29T11:09:43.726Z,336
2023-03-29T11:11:52.757Z,336
2023-03-29T11:14:19.314Z,336
2023-03-29T11:16:26.451Z,336
2023-03-29T11:18:33.218Z,336
2023-03-29T11:20:39.358Z,334
2023-03-29T11:22:45.802Z,336
2023-03-29T11:24:52.255Z,336
2023-03-29T11:26:58.780Z,334
2023-03-29T11:29:05.028Z,334
2023-03-29T11:31:12.668Z,336
2023-03-29T11:33:18.752Z,336
2023-03-29T11:35:25.448Z,336
2023-03-29T11:37:34.949Z,336
2023-03-29T11:39:42.571Z,336
2023-03-29T11:41:51.112Z,336
2023-03-29T11:43:57.967Z,336
2023-03-29T11:46:04.279Z,336
2023-03-29T11:48:10.805Z,336
2023-03-29T11:50:17.100Z,336
2023-03-29T11:52:23.901Z,336
2023-03-29T11:54:30.051Z,336
2023-03-29T11:56:35.973Z,336
2023-03-29T11:58:42.191Z,336
2023-03-29T12:00:48.461Z,336
2023-03-29T12:02:54.886Z,336
2023-03-29T12:05:01.314Z,336
2023-03-29T12:07:07.603Z,336
2023-03-29T12:09:16.856Z,336
2023-03-29T12:11:23.643Z,336
2023-03-29T12:13:32.198Z,336
2023-03-29T12:15:39.079Z,336
2023-03-29T12:17:45.497Z,336
2023-03-29T12:19:51.926Z,337
2023-03-29T12:21:59.298Z,336
2023-03-29T12:24:05.908Z,336
2023-03-29T12:26:12.560Z,336
2023-03-29T12:28:19.855Z,336
2023-03-29T12:30:26.188Z,336
2023-03-29T12:32:32.535Z,336
2023-03-29T12:34:39.679Z,336
2023-03-29T12:36:46.016Z,336
2023-03-29T12:38:52.533Z,337
2023-03-29T12:40:59.232Z,336
2023-03-29T12:43:05.846Z,336
2023-03-29T12:45:12.584Z,336
2023-03-29T12:47:18.771Z,336
2023-03-29T12:49:25.292Z,336
2023-03-29T12:51:31.636Z,336
2023-03-29T12:53:38.884Z,336
2023-03-29T12:55:46.513Z,336
2023-03-29T12:57:53.784Z,336
2023-03-29T13:00:00.220Z,336
2023-03-29T13:02:06.769Z,336
2023-03-29T13:04:13.000Z,336
2023-03-29T13:06:20.086Z,336
2023-03-29T13:08:26.286Z,336
2023-03-29T13:10:33.320Z,336
2023-03-29T13:12:41.318Z,336
2023-03-29T13:14:50.896Z,336
2023-03-29T13:17:15.948Z,336
2023-03-29T13:19:25.512Z,336
2023-03-29T13:21:32.307Z,336
2023-03-29T13:23:38.822Z,336
2023-03-29T13:25:46.546Z,336
2023-03-29T13:27:53.157Z,336
2023-03-29T13:30:00.147Z,336
2023-03-29T13:32:06.814Z,336
2023-03-29T13:34:13.975Z,336
2023-03-29T13:36:21.224Z,336
2023-03-29T13:38:28.099Z,336
2023-03-29T13:40:36.870Z,336
2023-03-29T13:42:44.043Z,337
2023-03-29T13:44:52.270Z,336
2023-03-29T13:46:59.653Z,336
2023-03-29T13:49:07.316Z,336
2023-03-29T13:51:14.715Z,336
2023-03-29T13:53:24.296Z,336
2023-03-29T13:55:36.167Z,336
2023-03-29T13:57:44.992Z,336
2023-03-29T13:59:51.513Z,317
2023-03-29T14:01:58.031Z,317
2023-03-29T14:04:04.933Z,316
2023-03-29T14:06:12.606Z,316
2023-03-29T14:08:21.525Z,321
2023-03-29T14:10:29.226Z,319
2023-03-29T14:12:38.908Z,320
2023-03-29T14:15:01.657Z,328
2023-03-29T14:17:08.834Z,328
2023-03-29T14:19:17.356Z,328
2023-03-29T14:21:25.162Z,328
2023-03-29T14:23:32.830Z,328
2023-03-29T14:25:40.357Z,329
2023-03-29T14:27:49.393Z,334
2023-03-29T14:29:56.764Z,334
2023-03-29T14:32:03.223Z,334
2023-03-29T14:34:11.178Z,333
2023-03-29T14:36:19.535Z,333
2023-03-29T14:38:31.493Z,331
2023-03-29T14:40:38.961Z,332
2023-03-29T14:42:46.124Z,331
2023-03-29T14:44:52.743Z,331
2023-03-29T14:46:59.067Z,333
2023-03-29T14:49:06.221Z,331
2023-03-29T14:51:13.916Z,332
2023-03-29T14:53:21.421Z,331
2023-03-29T14:55:28.090Z,332
2023-03-29T14:57:37.555Z,331
2023-03-29T14:59:44.527Z,331
2023-03-29T15:01:52.895Z,331
2023-03-29T15:04:00.405Z,331
2023-03-29T15:06:07.886Z,331
2023-03-29T15:08:15.135Z,331
2023-03-29T15:10:22.909Z,331
2023-03-29T15:12:30.892Z,331
2023-03-29T15:14:39.490Z,331
2023-03-29T15:16:47.261Z,331
2023-03-29T15:18:54.138Z,333
2023-03-29T15:21:01.126Z,333
2023-03-29T15:23:08.748Z,331
2023-03-29T15:25:16.316Z,332
2023-03-29T15:27:23.671Z,331
2023-03-29T15:29:30.948Z,331
2023-03-29T15:31:38.692Z,333
2023-03-29T15:33:46.932Z,332
2023-03-29T15:35:55.529Z,331
2023-03-29T15:38:03.550Z,331
2023-03-29T15:40:10.153Z,332
2023-03-29T15:42:18.299Z,331
2023-03-29T15:44:25.665Z,331
2023-03-29T15:46:32.640Z,331
2023-03-29T15:48:40.751Z,331
2023-03-29T15:50:48.578Z,331
2023-03-29T15:53:14.407Z,331
2023-03-29T15:55:21.743Z,332
2023-03-29T15:57:30.184Z,331
2023-03-29T15:59:39.171Z,331
2023-03-29T16:01:46.140Z,331
2023-03-29T16:03:53.228Z,331
2023-03-29T16:06:00.988Z,331
2023-03-29T16:08:09.374Z,331
2023-03-29T16:10:17.288Z,331
2023-03-29T16:12:24.628Z,331
2023-03-29T16:14:32.790Z,331
2023-03-29T16:16:40.868Z,331
2023-03-29T16:18:48.770Z,331
2023-03-29T16:20:56.514Z,331
2023-03-29T16:23:04.177Z,331
2023-03-29T16:25:12.199Z,331
2023-03-29T16:27:19.774Z,331
2023-03-29T16:29:27.487Z,331
2023-03-29T16:31:34.673Z,331
2023-03-29T16:33:42.325Z,331
2023-03-29T16:35:50.057Z,331
2023-03-29T16:37:57.550Z,331
2023-03-29T16:40:05.388Z,332
2023-03-29T16:42:13.420Z,328
2023-03-29T16:44:25.680Z,328
2023-03-29T16:46:34.579Z,328
2023-03-29T16:48:43.164Z,326
2023-03-29T16:50:50.938Z,325
2023-03-29T16:53:00.368Z,325
2023-03-29T16:55:25.015Z,325
2023-03-29T16:57:33.967Z,324
2023-03-29T16:59:41.946Z,324
2023-03-29T17:01:50.307Z,325
2023-03-29T17:03:59.580Z,326
2023-03-29T17:06:08.816Z,327
2023-03-29T17:08:16.466Z,326
2023-03-29T17:10:25.176Z,327
2023-03-29T17:12:34.186Z,326
2023-03-29T17:14:42.130Z,326
2023-03-29T17:16:49.893Z,326
2023-03-29T17:18:57.976Z,326
2023-03-29T17:21:05.413Z,326
2023-03-29T17:23:15.167Z,326
2023-03-29T17:25:22.692Z,326
2023-03-29T17:27:32.034Z,327
2023-03-29T17:29:40.436Z,326
2023-03-29T17:31:52.319Z,326
2023-03-29T17:34:01.705Z,327
2023-03-29T17:36:11.556Z,327
2023-03-29T17:38:20.866Z,322
2023-03-29T17:40:30.874Z,326
2023-03-29T17:42:39.714Z,327
2023-03-29T17:44:48.152Z,327
2023-03-29T17:46:57.258Z,327
2023-03-29T17:49:09.712Z,326
2023-03-29T17:51:24.591Z,326
2023-03-29T17:53:38.410Z,326
2023-03-29T17:55:56.783Z,326
2023-03-29T17:58:06.928Z,326
2023-03-29T18:00:19.457Z,327
2023-03-29T18:02:30.302Z,326
2023-03-29T18:04:39.501Z,327
2023-03-29T18:06:51.836Z,326
2023-03-29T18:09:00.515Z,322
2023-03-29T18:11:10.792Z,325
2023-03-29T18:13:24.115Z,322
2023-03-29T18:15:33.558Z,322
2023-03-29T18:17:45.964Z,321
2023-03-29T18:19:57.398Z,321
2023-03-29T18:22:05.653Z,322
2023-03-29T18:24:14.935Z,322
2023-03-29T18:26:26.956Z,322
2023-03-29T18:28:39.683Z,321
2023-03-29T18:30:54.312Z,320
2023-03-29T18:33:04.622Z,320
2023-03-29T18:35:15.450Z,322
2023-03-29T18:37:27.678Z,320
2023-03-29T18:39:45.479Z,320
2023-03-29T18:41:57.232Z,322
2023-03-29T18:44:18.899Z,322
2023-03-29T18:46:28.404Z,322
2023-03-29T18:48:42.374Z,321
2023-03-29T18:50:54.902Z,321
2023-03-29T18:53:05.959Z,321
2023-03-29T18:55:16.550Z,321
2023-03-29T18:57:30.838Z,324
2023-03-29T18:59:41.801Z,322
2023-03-29T19:01:51.607Z,322
2023-03-29T19:04:03.318Z,322
2023-03-29T19:06:14.630Z,321
2023-03-29T19:08:25.094Z,322
2023-03-29T19:10:35.176Z,321
2023-03-29T19:12:50.275Z,322
2023-03-29T19:15:00.759Z,322
2023-03-29T19:17:19.284Z,322
2023-03-29T19:19:30.602Z,322
2023-03-29T19:21:41.821Z,322
2023-03-29T19:23:54.838Z,327
2023-03-29T19:26:07.608Z,330
2023-03-29T19:28:20.861Z,329
2023-03-29T19:30:34.077Z,330
2023-03-29T19:32:47.087Z,330
2023-03-29T19:34:58.335Z,330
2023-03-29T19:37:08.759Z,329
2023-03-29T19:39:18.713Z,329
2023-03-29T19:41:30.656Z,330
2023-03-29T19:43:40.526Z,330
2023-03-29T19:45:50.120Z,330
2023-03-29T19:48:02.805Z,330
2023-03-29T19:50:15.145Z,330
2023-03-29T19:52:24.111Z,330
2023-03-29T19:54:41.145Z,322
2023-03-29T19:56:55.632Z,322
2023-03-29T19:59:06.552Z,326
2023-03-29T20:01:16.798Z,329
2023-03-29T20:03:24.434Z,330
2023-03-29T20:05:34.871Z,322
2023-03-29T20:07:45.140Z,327
2023-03-29T20:09:54.939Z,328
2023-03-29T20:12:03.421Z,327
2023-03-29T20:14:14.305Z,327
2023-03-29T20:16:23.515Z,322
2023-03-29T20:18:31.190Z,327
2023-03-29T20:20:41.477Z,322
2023-03-29T20:22:51.679Z,329
2023-03-29T20:24:59.904Z,327
2023-03-29T20:27:07.899Z,329
2023-03-29T20:29:15.678Z,330
2023-03-29T20:31:24.694Z,329
2023-03-29T20:33:32.927Z,327
2023-03-29T20:35:41.403Z,322
2023-03-29T20:37:49.255Z,329
2023-03-29T20:39:55.515Z,330
2023-03-29T20:42:03.148Z,330
2023-03-29T20:44:10.995Z,330
2023-03-29T20:46:18.752Z,328
2023-03-29T20:48:25.700Z,329
2023-03-29T20:50:32.507Z,329
2023-03-29T20:52:40.416Z,329
2023-03-29T20:54:47.119Z,328
2023-03-29T20:56:54.325Z,330
2023-03-29T20:59:02.415Z,329
2023-03-29T21:01:09.721Z,328
2023-03-29T21:03:17.619Z,328
2023-03-29T21:05:24.359Z,328
2023-03-29T21:07:31.058Z,329
2023-03-29T21:09:38.352Z,329
2023-03-29T21:11:45.193Z,329
2023-03-29T21:13:52.677Z,330
2023-03-29T21:15:59.666Z,331
2023-03-29T21:18:07.389Z,329
2023-03-29T21:20:14.042Z,328
2023-03-29T21:22:22.827Z,328
2023-03-29T21:24:29.855Z,328
2023-03-29T21:26:36.278Z,329
2023-03-29T21:28:45.797Z,329
2023-03-29T21:30:53.245Z,329
2023-03-29T21:33:00.607Z,329
2023-03-29T21:35:09.296Z,328
2023-03-29T21:37:18.896Z,329
2023-03-29T21:39:25.652Z,332
2023-03-29T21:41:32.392Z,333
2023-03-29T21:43:39.945Z,336
2023-03-29T21:45:46.889Z,333
2023-03-29T21:47:54.288Z,334
2023-03-29T21:50:03.046Z,336
2023-03-29T21:52:09.776Z,331
2023-03-29T21:54:16.868Z,331
2023-03-29T21:56:26.289Z,331
2023-03-29T21:58:34.773Z,331
2023-03-29T22:00:42.199Z,332
2023-03-29T22:02:49.445Z,331
2023-03-29T22:04:56.539Z,331
2023-03-29T22:07:03.271Z,330
2023-03-29T22:09:10.681Z,330
2023-03-29T22:11:17.707Z,330
2023-03-29T22:13:23.882Z,330
2023-03-29T22:15:31.104Z,330
2023-03-29T22:17:37.889Z,330
2023-03-29T22:19:44.906Z,330
2023-03-29T22:21:51.717Z,330
2023-03-29T22:23:57.983Z,330
2023-03-29T22:26:04.518Z,330
2023-03-29T22:28:10.674Z,330
2023-03-29T22:30:17.154Z,330
2023-03-29T22:32:24.208Z,330
2023-03-29T22:36:52.012Z,330
2023-03-29T22:38:58.828Z,330
2023-03-29T22:41:06.585Z,330
2023-03-29T22:43:12.960Z,330
2023-03-29T22:45:19.697Z,330
2023-03-29T22:47:27.295Z,330
2023-03-29T22:49:34.029Z,330
2023-03-29T22:51:40.702Z,330
2023-03-29T22:53:47.329Z,330
2023-03-29T22:55:53.923Z,330
2023-03-29T22:58:00.844Z,330
2023-03-29T23:00:09.649Z,330
2023-03-29T23:02:16.789Z,330
2023-03-29T23:04:24.936Z,331
2023-03-29T23:06:31.996Z,330
2023-03-29T23:08:38.823Z,330
2023-03-29T23:10:45.730Z,330
2023-03-29T23:12:52.991Z,331
2023-03-29T23:14:59.930Z,330
2023-03-29T23:17:06.163Z,330
2023-03-29T23:19:14.011Z,330
2023-03-29T23:21:20.896Z,330
2023-03-29T23:23:27.565Z,330
2023-03-29T23:25:34.350Z,330
2023-03-29T23:27:41.047Z,330
2023-03-29T23:29:47.673Z,330
2023-03-29T23:31:54.780Z,330
2023-03-29T23:34:01.479Z,330
2023-03-29T23:36:09.233Z,330
2023-03-29T23:38:16.395Z,330
2023-03-29T23:40:23.057Z,330
2023-03-29T23:42:30.216Z,330
2023-03-29T23:44:38.498Z,330
2023-03-29T23:46:44.992Z,330
2023-03-29T23:48:51.629Z,330
2023-03-29T23:50:57.990Z,330
2023-03-29T23:53:05.110Z,330
2023-03-29T23:55:11.784Z,330
2023-03-29T23:57:18.349Z,330
2023-03-29T23:59:25.448Z,330
